Time;durP1;ratioP1;P1;durP2;ratioP2;P2;SDS_P1;SDS_P2;PMS_P1;PMS_P2;Temp;Humidity;BMP_temperature;BMP_pressure;BME280_temperature;BME280_humidity;BME280_pressure;Samples;Min_cycle;Max_cycle;Signal;HPM_P1;HPM_P2
2022/12/13 00:01:24;;;;;;;76.20;33.53;;;2.80;97.10;;;;;;5064294;28;20256;-64
2022/12/13 00:03:55;;;;;;;73.07;33.33;;;2.80;97.20;;;;;;5061051;28;20559;-64
2022/12/13 00:06:23;;;;;;;74.03;32.43;;;2.80;97.30;;;;;;5057773;28;20272;-64
2022/12/13 00:08:51;;;;;;;62.93;28.40;;;2.90;97.30;;;;;;5060149;28;20651;-63
2022/12/13 00:11:18;;;;;;;59.87;26.33;;;2.90;97.20;;;;;;5062634;28;20257;-64
2022/12/13 00:13:48;;;;;;;59.57;28.97;;;2.80;97.10;;;;;;5060825;28;20208;-64
2022/12/13 00:16:23;;;;;;;52.27;25.77;;;2.80;97.00;;;;;;5058097;28;20215;-64
2022/12/13 00:18:54;;;;;;;61.43;28.40;;;2.80;97.00;;;;;;5058979;28;20206;-64
2022/12/13 00:21:24;;;;;;;53.40;26.20;;;2.70;96.90;;;;;;5056142;28;20204;-64
2022/12/13 00:23:51;;;;;;;62.13;28.10;;;2.70;97.00;;;;;;5058876;28;20203;-64
2022/12/13 00:26:21;;;;;;;67.57;28.47;;;2.70;97.10;;;;;;5060001;28;20192;-63
2022/12/13 00:28:50;;;;;;;59.00;26.23;;;2.70;97.20;;;;;;5060426;28;20553;-63
2022/12/13 00:31:18;;;;;;;59.43;29.13;;;2.70;97.30;;;;;;5050431;28;20216;-63
2022/12/13 00:34:05;;;;;;;63.03;26.33;;;2.70;97.30;;;;;;5064902;28;20217;-63
2022/12/13 00:36:32;;;;;;;64.93;27.97;;;2.70;97.40;;;;;;5068459;28;20207;-63
2022/12/13 00:39:00;;;;;;;55.50;26.57;;;2.70;97.40;;;;;;5064155;28;20206;-63
2022/12/13 00:41:33;;;;;;;62.13;28.23;;;2.70;97.30;;;;;;5046541;28;20239;-63
2022/12/13 00:44:01;;;;;;;56.20;25.77;;;2.70;97.40;;;;;;5069419;28;20204;-63
2022/12/13 00:46:29;;;;;;;51.97;24.60;;;2.70;97.40;;;;;;5045549;28;20293;-63
2022/12/13 00:48:59;;;;;;;56.80;26.57;;;2.70;97.40;;;;;;5065929;28;20204;-63
2022/12/13 00:51:29;;;;;;;53.50;24.77;;;2.70;97.30;;;;;;5065354;28;20222;-63
2022/12/13 00:53:57;;;;;;;47.07;24.90;;;2.70;97.30;;;;;;5063023;28;20623;-63
2022/12/13 00:56:27;;;;;;;54.03;24.47;;;2.70;97.30;;;;;;5067939;28;20212;-63
2022/12/13 00:58:55;;;;;;;54.10;25.80;;;2.70;97.50;;;;;;5048350;28;20638;-63
2022/12/13 01:01:28;;;;;;;48.13;25.33;;;2.70;97.30;;;;;;5064056;28;20247;-63
2022/12/13 01:03:58;;;;;;;53.53;25.27;;;2.70;97.40;;;;;;5066899;28;20281;-63
2022/12/13 01:06:33;;;;;;;56.07;24.90;;;2.70;97.40;;;;;;5062165;28;20196;-63
2022/12/13 01:09:01;;;;;;;59.40;26.80;;;2.70;97.40;;;;;;5064764;28;20209;-63
2022/12/13 01:11:28;;;;;;;56.80;26.03;;;2.60;97.30;;;;;;5065626;28;20250;-63
2022/12/13 01:13:55;;;;;;;52.43;26.63;;;2.60;97.40;;;;;;5067068;28;20204;-63
2022/12/13 01:16:22;;;;;;;51.87;26.07;;;2.60;97.40;;;;;;5059476;28;20212;-63
2022/12/13 01:18:49;;;;;;;57.93;26.17;;;2.60;97.50;;;;;;5065693;28;20203;-63
2022/12/13 01:21:19;;;;;;;59.07;26.13;;;2.60;97.60;;;;;;5065623;28;20220;-64
2022/12/13 01:23:48;;;;;;;52.40;26.83;;;2.70;97.70;;;;;;5065642;28;20196;-64
2022/12/13 01:26:17;;;;;;;54.03;26.20;;;2.70;97.70;;;;;;5060537;28;20209;-64
2022/12/13 01:28:45;;;;;;;56.13;27.27;;;2.70;97.70;;;;;;5054209;28;20208;-64
2022/12/13 01:31:15;;;;;;;53.93;25.73;;;2.80;97.70;;;;;;5064719;28;20213;-63
2022/12/13 01:33:42;;;;;;;51.43;27.27;;;2.80;97.70;;;;;;5070602;28;20281;-64
2022/12/13 01:36:14;;;;;;;54.73;27.13;;;2.80;97.50;;;;;;5068663;28;20679;-64
2022/12/13 01:38:42;;;;;;;53.27;26.77;;;2.80;97.30;;;;;;5063876;28;20598;-64
2022/12/13 01:41:14;;;;;;;55.43;26.10;;;2.80;97.30;;;;;;5066812;28;20208;-64
2022/12/13 01:43:46;;;;;;;55.13;26.00;;;2.70;97.30;;;;;;5065676;28;20242;-64
2022/12/13 01:46:16;;;;;;;49.87;25.90;;;2.70;97.30;;;;;;5057789;28;20648;-64
2022/12/13 01:48:52;;;;;;;52.97;24.77;;;2.70;97.40;;;;;;5062843;28;20208;-64
2022/12/13 01:51:26;;;;;;;52.40;25.83;;;2.70;97.50;;;;;;5063138;28;20236;-64
2022/12/13 01:53:55;;;;;;;45.00;22.87;;;2.70;97.60;;;;;;5064964;28;20589;-64
2022/12/13 01:56:30;;;;;;;48.40;22.90;;;2.70;97.70;;;;;;5065458;28;20205;-64
2022/12/13 01:58:59;;;;;;;46.77;22.03;;;2.70;97.80;;;;;;5064375;28;20201;-64
2022/12/13 02:01:27;;;;;;;43.67;22.67;;;2.70;97.80;;;;;;5061025;28;20227;-64
2022/12/13 02:03:55;;;;;;;50.57;23.70;;;2.80;97.90;;;;;;5063076;28;20193;-64
2022/12/13 02:06:36;;;;;;;51.97;25.50;;;2.80;97.90;;;;;;5063175;28;20206;-64
2022/12/13 02:09:05;;;;;;;50.87;23.67;;;2.80;98.20;;;;;;5059435;28;20207;-64
2022/12/13 02:11:35;;;;;;;49.23;24.17;;;2.90;98.00;;;;;;5064063;28;20191;-64
2022/12/13 02:14:04;;;;;;;44.20;23.97;;;3.00;98.00;;;;;;5063991;28;20547;-64
2022/12/13 02:16:43;;;;;;;55.57;25.57;;;3.00;97.90;;;;;;5059023;28;20214;-64
2022/12/13 02:19:41;;;;;;;51.43;25.90;;;3.10;97.90;;;;;;5061627;28;20513;-63
2022/12/13 02:22:20;;;;;;;48.77;23.77;;;3.10;97.90;;;;;;5068581;28;20600;-64
2022/12/13 02:25:07;;;;;;;47.57;23.20;;;3.20;97.80;;;;;;5064287;28;20199;-63
2022/12/13 02:28:00;;;;;;;46.00;22.53;;;3.20;97.80;;;;;;5027266;28;20217;-64
2022/12/13 02:30:37;;;;;;;63.57;25.03;;;3.20;97.80;;;;;;5062490;28;20212;-64
2022/12/13 02:33:07;;;;;;;51.70;23.67;;;3.20;97.70;;;;;;5061409;28;20233;-64
2022/12/13 02:35:59;;;;;;;49.87;23.87;;;3.30;97.70;;;;;;5061173;28;20200;-64
2022/12/13 02:38:30;;;;;;;47.40;24.00;;;3.20;97.60;;;;;;5064305;28;20204;-64
2022/12/13 02:41:28;;;;;;;51.50;25.23;;;3.30;97.60;;;;;;5064148;28;20211;-63
2022/12/13 02:43:57;;;;;;;49.70;23.83;;;3.30;97.60;;;;;;5062445;28;20537;-64
2022/12/13 02:46:30;;;;;;;45.67;22.63;;;3.30;97.50;;;;;;5063037;28;20206;-64
2022/12/13 02:48:58;;;;;;;48.83;23.80;;;3.30;97.50;;;;;;5065442;28;20212;-64
2022/12/13 02:51:27;;;;;;;53.53;23.07;;;3.30;97.50;;;;;;5063611;28;20539;-64
2022/12/13 02:53:54;;;;;;;48.33;24.77;;;3.30;97.40;;;;;;5063835;28;20659;-64
2022/12/13 02:56:21;;;;;;;47.93;23.80;;;3.30;97.40;;;;;;5058791;28;20202;-64
2022/12/13 02:58:52;;;;;;;48.10;25.13;;;3.40;97.40;;;;;;5061203;28;20200;-64
2022/12/13 03:01:44;;;;;;;49.23;25.53;;;3.30;97.40;;;;;;5063620;28;20726;-64
2022/12/13 03:04:33;;;;;;;45.37;23.13;;;3.40;97.40;;;;;;5062992;28;20191;-64
2022/12/13 03:07:26;;;;;;;49.20;22.40;;;3.40;97.40;;;;;;5064881;28;20198;-64
2022/12/13 03:10:04;;;;;;;45.80;23.00;;;3.40;97.30;;;;;;5059559;28;20748;-64
2022/12/13 03:15:44;;;;;;;47.40;23.57;;;3.30;96.70;;;;;;5060226;28;20594;-64
2022/12/13 03:18:19;;;;;;;49.73;23.70;;;3.30;96.80;;;;;;5057956;28;20204;-64
2022/12/13 03:21:13;;;;;;;56.60;24.43;;;3.30;96.90;;;;;;5061018;28;20206;-64
2022/12/13 03:23:40;;;;;;;43.77;23.50;;;3.30;97.00;;;;;;5061126;28;20273;-64
2022/12/13 03:26:11;;;;;;;43.70;23.33;;;3.30;97.10;;;;;;5060614;28;20215;-64
2022/12/13 03:28:38;;;;;;;44.70;22.63;;;3.30;97.10;;;;;;5061758;28;20201;-64
2022/12/13 03:31:06;;;;;;;48.63;24.07;;;3.30;97.20;;;;;;5040987;28;20208;-64
2022/12/13 03:33:34;;;;;;;46.73;23.77;;;3.40;97.20;;;;;;5048366;28;20195;-64
2022/12/13 03:36:01;;;;;;;50.00;23.93;;;3.40;97.20;;;;;;5064582;28;20213;-64
2022/12/13 03:38:29;;;;;;;44.40;21.47;;;3.40;97.10;;;;;;5062130;28;20196;-64
2022/12/13 03:41:04;;;;;;;53.53;23.07;;;3.40;97.10;;;;;;5063960;28;20633;-64
2022/12/13 03:43:31;;;;;;;44.03;23.17;;;3.40;96.90;;;;;;5052381;28;20232;-64
2022/12/13 03:46:00;;;;;;;43.17;23.77;;;3.30;96.70;;;;;;5057688;28;20213;-64
2022/12/13 03:48:27;;;;;;;40.97;21.20;;;3.30;96.70;;;;;;5056811;28;20200;-64
2022/12/13 03:50:55;;;;;;;44.40;23.43;;;3.30;96.80;;;;;;5060942;28;20543;-64
2022/12/13 03:53:23;;;;;;;41.57;23.07;;;3.30;96.90;;;;;;5058088;28;20233;-64
2022/12/13 03:56:03;;;;;;;41.77;22.43;;;3.30;97.00;;;;;;5062137;28;20566;-64
2022/12/13 03:58:31;;;;;;;43.73;21.73;;;3.30;97.00;;;;;;5063621;28;20211;-64
2022/12/13 04:01:05;;;;;;;40.43;21.37;;;3.40;97.00;;;;;;5060559;28;20251;-64
2022/12/13 04:03:32;;;;;;;44.13;23.33;;;3.40;97.00;;;;;;5067638;28;20212;-63
2022/12/13 04:06:00;;;;;;;41.10;22.43;;;3.40;97.00;;;;;;5063665;28;20205;-63
2022/12/13 04:08:27;;;;;;;38.07;21.30;;;3.40;97.00;;;;;;5064166;28;20195;-63
2022/12/13 04:10:54;;;;;;;44.10;22.93;;;3.40;97.00;;;;;;5060889;28;20215;-64
2022/12/13 04:13:33;;;;;;;40.37;22.17;;;3.40;97.00;;;;;;5064426;28;20209;-64
2022/12/13 04:16:01;;;;;;;43.53;20.97;;;3.40;97.00;;;;;;5065602;28;20754;-64
2022/12/13 04:18:28;;;;;;;40.47;22.20;;;3.40;96.90;;;;;;5063697;28;20200;-64
2022/12/13 04:20:56;;;;;;;41.60;22.33;;;3.40;96.80;;;;;;5063275;28;20211;-64
2022/12/13 04:23:23;;;;;;;43.97;22.47;;;3.40;96.80;;;;;;5064036;28;20212;-64
2022/12/13 04:25:50;;;;;;;43.90;22.97;;;3.40;96.80;;;;;;5063982;28;20772;-64
2022/12/13 04:28:18;;;;;;;39.23;21.27;;;3.40;96.70;;;;;;5061963;28;20191;-64
2022/12/13 04:30:52;;;;;;;40.93;22.30;;;3.30;96.60;;;;;;5067790;28;20291;-64
2022/12/13 04:33:21;;;;;;;38.37;20.50;;;3.30;96.50;;;;;;5063330;28;20542;-64
2022/12/13 04:35:49;;;;;;;40.00;21.30;;;3.30;96.50;;;;;;5066899;28;20290;-64
2022/12/13 04:38:16;;;;;;;42.40;21.47;;;3.30;96.60;;;;;;5060934;28;20201;-64
2022/12/13 04:40:44;;;;;;;40.43;21.97;;;3.30;96.70;;;;;;5047568;28;20233;-64
2022/12/13 04:43:11;;;;;;;40.63;20.67;;;3.20;96.50;;;;;;5069809;28;20665;-64
2022/12/13 04:45:38;;;;;;;39.90;20.90;;;3.20;96.40;;;;;;5069100;28;20261;-64
2022/12/13 04:48:05;;;;;;;41.50;21.23;;;3.20;96.40;;;;;;5064039;28;20208;-64
2022/12/13 04:50:33;;;;;;;40.33;20.57;;;3.20;96.50;;;;;;5066297;28;20205;-64
2022/12/13 04:53:00;;;;;;;39.17;21.33;;;3.20;96.60;;;;;;5069008;28;20200;-64
2022/12/13 04:55:27;;;;;;;42.73;19.77;;;3.20;96.70;;;;;;5060058;28;20535;-64
2022/12/13 04:57:54;;;;;;;45.20;21.67;;;3.20;96.70;;;;;;5058537;28;20637;-64
2022/12/13 05:00:22;;;;;;;40.20;22.23;;;3.20;96.60;;;;;;5059371;28;20255;-64
2022/12/13 05:02:49;;;;;;;43.50;21.03;;;3.20;96.50;;;;;;5066994;28;20655;-64
2022/12/13 05:05:16;;;;;;;38.60;21.10;;;3.20;96.50;;;;;;5067270;28;20224;-64
2022/12/13 05:07:44;;;;;;;43.90;22.53;;;3.20;96.50;;;;;;5066457;28;20207;-64
2022/12/13 05:10:11;;;;;;;43.83;22.00;;;3.10;96.60;;;;;;5064733;28;20192;-64
2022/12/13 05:12:59;;;;;;;42.37;21.40;;;3.10;96.70;;;;;;5067494;28;20265;-64
2022/12/13 05:15:26;;;;;;;44.63;21.70;;;3.10;96.90;;;;;;5058617;28;20246;-64
2022/12/13 05:17:53;;;;;;;43.97;21.80;;;3.10;97.00;;;;;;5061129;28;20204;-64
2022/12/13 05:20:21;;;;;;;44.90;22.13;;;3.20;97.10;;;;;;5061702;28;20265;-64
2022/12/13 05:22:48;;;;;;;42.87;21.00;;;3.20;97.10;;;;;;5063308;28;20227;-64
2022/12/13 05:25:15;;;;;;;47.80;23.37;;;3.20;97.20;;;;;;5048218;28;20200;-64
2022/12/13 05:27:42;;;;;;;40.70;21.30;;;3.20;97.10;;;;;;5060655;28;20200;-64
2022/12/13 05:30:10;;;;;;;49.47;23.30;;;3.30;97.20;;;;;;5066476;28;20257;-64
2022/12/13 05:32:37;;;;;;;40.47;21.30;;;3.30;97.20;;;;;;5063891;28;20639;-64
2022/12/13 05:35:17;;;;;;;45.17;21.87;;;3.30;97.20;;;;;;5062608;28;20242;-64
2022/12/13 05:37:53;;;;;;;49.97;21.93;;;3.40;97.20;;;;;;5062295;28;20226;-64
2022/12/13 05:40:26;;;;;;;44.07;21.10;;;3.40;97.10;;;;;;5064583;28;20208;-64
2022/12/13 05:42:54;;;;;;;44.50;22.77;;;3.40;97.10;;;;;;5066339;28;20651;-64
2022/12/13 05:45:29;;;;;;;46.70;21.20;;;3.40;97.10;;;;;;5062065;28;20290;-64
2022/12/13 05:47:56;;;;;;;42.27;21.73;;;3.40;97.00;;;;;;5057455;28;20193;-64
2022/12/13 05:50:23;;;;;;;43.83;22.20;;;3.40;97.00;;;;;;5064380;28;20205;-64
2022/12/13 05:52:51;;;;;;;46.40;21.07;;;3.40;97.00;;;;;;5058792;28;20204;-64
2022/12/13 05:55:18;;;;;;;43.50;21.17;;;3.40;97.00;;;;;;5064861;28;20217;-64
2022/12/13 05:57:46;;;;;;;37.63;19.60;;;3.40;96.90;;;;;;5064258;28;20223;-64
2022/12/13 06:00:17;;;;;;;41.07;20.03;;;3.50;96.80;;;;;;5067406;28;20264;-64
2022/12/13 06:02:57;;;;;;;39.37;20.90;;;3.40;96.80;;;;;;5063193;28;20586;-64
2022/12/13 06:05:29;;;;;;;37.37;19.87;;;3.40;96.80;;;;;;5062662;28;20192;-64
2022/12/13 06:07:56;;;;;;;37.70;20.67;;;3.40;96.80;;;;;;5060634;28;20488;-64
2022/12/13 06:10:25;;;;;;;37.23;20.00;;;3.40;96.70;;;;;;5061336;28;20319;-64
2022/12/13 06:13:02;;;;;;;33.47;19.63;;;3.40;96.70;;;;;;5064619;28;20637;-64
2022/12/13 06:15:49;;;;;;;38.10;20.70;;;3.40;96.70;;;;;;5064506;28;20204;-64
2022/12/13 06:18:17;;;;;;;39.03;20.30;;;3.40;96.70;;;;;;5061023;28;20321;-64
2022/12/13 06:20:46;;;;;;;44.53;20.37;;;3.40;96.70;;;;;;5062126;28;20204;-64
2022/12/13 06:23:13;;;;;;;38.50;20.87;;;3.40;96.80;;;;;;5062623;28;20216;-64
2022/12/13 06:25:40;;;;;;;36.60;18.53;;;3.40;96.80;;;;;;5058697;28;20276;-64
2022/12/13 06:28:07;;;;;;;37.77;20.10;;;3.40;96.80;;;;;;5061292;28;20629;-64
2022/12/13 06:30:35;;;;;;;36.40;21.13;;;3.40;96.70;;;;;;5063928;28;20208;-64
2022/12/13 06:33:09;;;;;;;36.03;20.17;;;3.40;96.70;;;;;;5064716;28;20210;-64
2022/12/13 06:35:39;;;;;;;36.57;19.27;;;3.40;96.60;;;;;;5061582;28;20604;-64
2022/12/13 06:38:07;;;;;;;39.83;20.73;;;3.40;96.60;;;;;;5061177;28;20278;-64
2022/12/13 06:40:38;;;;;;;40.50;21.50;;;3.40;96.60;;;;;;5060053;28;20211;-64
2022/12/13 06:43:05;;;;;;;33.87;19.73;;;3.40;96.60;;;;;;5065908;28;20297;-64
2022/12/13 06:45:32;;;;;;;36.47;18.87;;;3.40;96.60;;;;;;5065878;28;20200;-64
2022/12/13 06:48:00;;;;;;;39.00;19.97;;;3.50;96.70;;;;;;5064698;28;20220;-64
2022/12/13 06:50:27;;;;;;;34.67;19.00;;;3.50;96.70;;;;;;5065954;28;20277;-64
2022/12/13 06:52:54;;;;;;;36.23;18.00;;;3.50;96.70;;;;;;5063138;28;20216;-65
2022/12/13 06:55:21;;;;;;;38.57;18.73;;;3.50;96.60;;;;;;5061494;28;20215;-64
2022/12/13 06:57:50;;;;;;;42.87;20.70;;;3.50;96.60;;;;;;5063920;28;20209;-64
2022/12/13 07:00:18;;;;;;;38.10;20.77;;;3.50;96.70;;;;;;5064491;28;20662;-64
2022/12/13 07:02:54;;;;;;;32.93;18.47;;;3.50;96.70;;;;;;5065587;28;20240;-64
2022/12/13 07:05:22;;;;;;;37.07;20.67;;;3.50;96.70;;;;;;5058405;28;20265;-64
2022/12/13 07:07:49;;;;;;;34.30;19.23;;;3.50;96.70;;;;;;5064650;28;20563;-64
2022/12/13 07:10:16;;;;;;;38.97;20.80;;;3.50;96.60;;;;;;5066010;28;20235;-64
2022/12/13 07:12:48;;;;;;;34.30;20.80;;;3.50;96.70;;;;;;5061706;28;20553;-64
2022/12/13 07:15:16;;;;;;;42.40;21.90;;;3.50;96.70;;;;;;5062093;28;20210;-64
2022/12/13 07:17:43;;;;;;;39.93;20.03;;;3.50;96.70;;;;;;5057904;28;20208;-64
2022/12/13 07:20:12;;;;;;;37.30;20.77;;;3.50;96.70;;;;;;5057888;28;20204;-64
2022/12/13 07:22:39;;;;;;;38.57;21.60;;;3.50;96.70;;;;;;5060881;28;20274;-64
2022/12/13 07:25:14;;;;;;;38.57;21.70;;;3.50;96.70;;;;;;5061876;28;20211;-64
2022/12/13 07:27:56;;;;;;;38.93;19.73;;;3.40;96.70;;;;;;5060338;28;20204;-64
2022/12/13 07:30:30;;;;;;;37.90;21.27;;;3.50;96.70;;;;;;5065593;28;20526;-64
2022/12/13 07:32:57;;;;;;;36.20;20.57;;;3.50;96.70;;;;;;5062889;28;20197;-64
2022/12/13 07:35:24;;;;;;;38.90;19.20;;;3.50;96.70;;;;;;5057490;28;20579;-64
2022/12/13 07:37:51;;;;;;;38.17;21.87;;;3.50;96.60;;;;;;5060116;28;20274;-64
2022/12/13 07:40:18;;;;;;;32.87;19.73;;;3.50;96.50;;;;;;5063680;28;20205;-64
2022/12/13 07:42:53;;;;;;;39.37;20.40;;;3.40;96.40;;;;;;5068970;28;20222;-64
2022/12/13 07:45:21;;;;;;;39.07;20.70;;;3.40;96.40;;;;;;5063525;28;20253;-64
2022/12/13 07:47:48;;;;;;;39.93;21.23;;;3.50;96.50;;;;;;5068254;28;20258;-63
2022/12/13 07:50:19;;;;;;;34.00;19.73;;;3.50;96.50;;;;;;5067152;28;20197;-64
2022/12/13 07:52:52;;;;;;;36.80;19.13;;;3.50;96.60;;;;;;5071943;28;20639;-64
2022/12/13 07:55:20;;;;;;;31.83;19.87;;;3.50;96.60;;;;;;5069369;28;20274;-64
2022/12/13 07:58:11;;;;;;;42.93;19.83;;;3.50;96.60;;;;;;5063633;28;20658;-64
2022/12/13 08:00:39;;;;;;;32.73;19.33;;;3.50;96.60;;;;;;5067807;28;20253;-64
2022/12/13 08:03:12;;;;;;;34.53;18.23;;;3.50;96.60;;;;;;5067864;28;20294;-64
2022/12/13 08:06:02;;;;;;;33.93;18.80;;;3.60;96.60;;;;;;5065014;28;20266;-64
2022/12/13 08:08:30;;;;;;;32.63;17.33;;;3.60;96.60;;;;;;5059783;28;20196;-64
2022/12/13 08:11:09;;;;;;;32.40;18.43;;;3.60;96.60;;;;;;5049671;28;20227;-64
2022/12/13 08:13:37;;;;;;;36.40;17.30;;;3.60;96.40;;;;;;5051115;28;20822;-64
2022/12/13 08:16:07;;;;;;;33.27;18.13;;;3.60;96.10;;;;;;5065947;28;20199;-64
2022/12/13 08:18:57;;;;;;;29.47;17.07;;;3.60;96.00;;;;;;5062931;28;20282;-64
2022/12/13 08:21:33;;;;;;;32.00;18.37;;;3.60;96.10;;;;;;5065968;28;20626;-64
2022/12/13 08:24:20;;;;;;;32.33;18.63;;;3.60;96.10;;;;;;5060943;28;20226;-64
2022/12/13 08:26:47;;;;;;;29.13;17.37;;;3.60;96.10;;;;;;5061378;28;20202;-64
2022/12/13 08:29:14;;;;;;;28.83;16.57;;;3.60;95.90;;;;;;5062435;28;20197;-64
2022/12/13 08:32:01;;;;;;;28.13;17.07;;;3.70;95.70;;;;;;5065779;28;20200;-64
2022/12/13 08:34:29;;;;;;;27.00;17.40;;;3.60;95.50;;;;;;5062168;28;20200;-64
2022/12/13 08:36:56;;;;;;;29.67;19.07;;;3.60;95.60;;;;;;5063719;28;20337;-64
2022/12/13 08:39:34;;;;;;;32.03;17.67;;;3.60;95.70;;;;;;5067889;28;20527;-64
2022/12/13 08:42:06;;;;;;;30.80;18.73;;;3.70;95.80;;;;;;5070784;28;20710;-64
2022/12/13 08:44:51;;;;;;;29.33;17.07;;;3.70;95.70;;;;;;5058900;28;20318;-64
2022/12/13 08:47:24;;;;;;;33.27;19.20;;;3.70;95.70;;;;;;5061879;28;20212;-64
2022/12/13 08:49:58;;;;;;;36.20;18.83;;;3.70;95.70;;;;;;5051047;28;20242;-64
2022/12/13 08:52:31;;;;;;;31.77;18.27;;;3.70;95.70;;;;;;5066303;28;20197;-64
2022/12/13 08:55:12;;;;;;;33.30;19.73;;;3.70;95.70;;;;;;5062601;28;20646;-64
2022/12/13 08:57:40;;;;;;;30.97;16.93;;;3.70;95.70;;;;;;5059926;28;20209;-64
2022/12/13 09:00:14;;;;;;;29.40;17.90;;;3.70;95.70;;;;;;5062334;28;20317;-64
2022/12/13 09:02:41;;;;;;;28.80;16.43;;;3.80;95.80;;;;;;5053250;28;20201;-64
2022/12/13 09:05:11;;;;;;;28.83;16.30;;;3.80;95.70;;;;;;5067661;28;20276;-64
2022/12/13 09:07:40;;;;;;;32.20;17.07;;;3.80;95.70;;;;;;5063857;28;20211;-64
2022/12/13 09:10:08;;;;;;;25.03;15.23;;;3.90;95.80;;;;;;5066246;28;20216;-64
2022/12/13 09:12:54;;;;;;;27.77;16.50;;;3.90;95.60;;;;;;5063928;28;20208;-64
2022/12/13 09:15:29;;;;;;;28.00;17.60;;;3.90;95.20;;;;;;5061783;28;20242;-64
2022/12/13 09:18:01;;;;;;;24.10;15.40;;;3.90;94.80;;;;;;5064449;28;20517;-63
2022/12/13 09:20:32;;;;;;;27.50;16.13;;;3.90;94.80;;;;;;5067847;28;20211;-64
2022/12/13 09:23:09;;;;;;;28.10;15.87;;;3.90;95.00;;;;;;5065580;28;20204;-64
2022/12/13 09:25:40;;;;;;;27.60;17.17;;;3.90;95.10;;;;;;5065243;28;20261;-64
2022/12/13 09:28:08;;;;;;;26.60;16.33;;;4.00;95.30;;;;;;5062029;28;20203;-63
2022/12/13 09:30:37;;;;;;;26.07;15.60;;;4.00;95.30;;;;;;5058317;28;20197;-64
2022/12/13 09:33:04;;;;;;;26.73;16.07;;;4.10;95.20;;;;;;5065119;28;20625;-62
2022/12/13 09:35:52;;;;;;;26.13;15.47;;;4.10;95.00;;;;;;5062626;28;20204;-64
2022/12/13 09:38:19;;;;;;;29.30;19.53;;;4.10;95.00;;;;;;5057024;28;20411;-62
2022/12/13 09:40:49;;;;;;;22.20;14.70;;;4.20;95.00;;;;;;5065535;28;20630;-63
2022/12/13 09:43:28;;;;;;;24.47;14.60;;;4.30;94.80;;;;;;5063971;28;20221;-65
2022/12/13 09:46:03;;;;;;;24.07;14.67;;;4.40;94.60;;;;;;5064246;28;20200;-64
2022/12/13 09:48:41;;;;;;;22.70;13.37;;;4.40;94.30;;;;;;5062879;28;20213;-64
2022/12/13 09:51:14;;;;;;;22.20;14.13;;;4.40;94.20;;;;;;5065018;28;20632;-64
2022/12/13 09:53:49;;;;;;;22.93;14.00;;;4.40;94.20;;;;;;5068411;28;20215;-64
2022/12/13 09:56:18;;;;;;;21.53;13.43;;;4.40;94.10;;;;;;5060926;28;20206;-64
2022/12/13 09:58:51;;;;;;;22.93;13.67;;;4.50;94.10;;;;;;5062305;28;20204;-65
2022/12/13 10:01:19;;;;;;;19.30;12.77;;;4.50;94.10;;;;;;5063103;28;20237;-63
2022/12/13 10:03:52;;;;;;;18.77;12.30;;;4.50;94.40;;;;;;5061845;28;20212;-61
2022/12/13 10:06:27;;;;;;;24.00;13.30;;;4.50;94.00;;;;;;5062666;28;20209;-64
2022/12/13 10:08:59;;;;;;;20.33;12.13;;;4.60;93.80;;;;;;5062854;28;20224;-63
2022/12/13 10:11:27;;;;;;;21.57;11.73;;;4.60;93.70;;;;;;5066866;28;20204;-61
2022/12/13 10:14:08;;;;;;;16.60;10.83;;;4.60;93.60;;;;;;5064777;28;20278;-62
2022/12/13 10:16:35;;;;;;;16.50;10.80;;;4.60;93.40;;;;;;5064961;28;20282;-64
2022/12/13 10:19:30;;;;;;;17.63;9.73;;;4.70;93.40;;;;;;5060226;28;20200;-62
2022/12/13 10:22:01;;;;;;;12.93;8.83;;;4.70;93.30;;;;;;5064481;28;20200;-63
2022/12/13 10:24:51;;;;;;;10.43;6.63;;;4.80;93.10;;;;;;5061923;28;20232;-62
2022/12/13 10:27:32;;;;;;;10.93;7.30;;;4.80;92.80;;;;;;5058262;28;20199;-62
2022/12/13 10:30:12;;;;;;;7.40;5.80;;;4.80;92.50;;;;;;5048371;28;20201;-64
2022/12/13 10:32:56;;;;;;;9.03;5.97;;;4.80;92.10;;;;;;5061765;28;20231;-62
2022/12/13 10:35:29;;;;;;;9.70;5.43;;;4.80;91.70;;;;;;5062595;28;20198;-64
2022/12/13 10:37:59;;;;;;;6.47;4.90;;;4.80;91.40;;;;;;5061467;28;20292;-63
2022/12/13 10:40:42;;;;;;;9.40;5.43;;;4.80;91.20;;;;;;5064090;28;20727;-62
2022/12/13 10:43:19;;;;;;;6.20;4.73;;;4.80;90.50;;;;;;5061447;28;20216;-63
2022/12/13 10:45:57;;;;;;;6.70;4.33;;;4.80;89.10;;;;;;5060313;28;20201;-63
2022/12/13 10:48:47;;;;;;;8.63;4.13;;;4.70;86.90;;;;;;5059913;28;20259;-63
2022/12/13 10:51:20;;;;;;;8.30;4.43;;;4.70;86.10;;;;;;5065558;28;20573;-61
2022/12/13 10:53:55;;;;;;;7.37;5.03;;;4.70;85.50;;;;;;5061926;28;20231;-61
2022/12/13 10:56:32;;;;;;;12.47;7.93;;;4.60;85.50;;;;;;5061605;28;20192;-60
2022/12/13 10:59:21;;;;;;;14.97;9.40;;;4.60;86.10;;;;;;5062849;28;20288;-61
2022/12/13 11:01:48;;;;;;;17.43;10.80;;;4.50;87.00;;;;;;5058616;28;20600;-62
2022/12/13 11:04:31;;;;;;;17.80;11.30;;;4.50;88.00;;;;;;5064382;28;20240;-63
2022/12/13 11:07:22;;;;;;;17.63;10.90;;;4.50;88.90;;;;;;5061589;28;20592;-63
2022/12/13 11:09:49;;;;;;;20.10;11.63;;;4.50;89.90;;;;;;5061081;28;20565;-63
2022/12/13 11:12:24;;;;;;;17.83;11.10;;;4.50;90.00;;;;;;5065114;28;20290;-62
2022/12/13 11:14:57;;;;;;;19.50;12.20;;;4.50;90.20;;;;;;5061409;28;20205;-63
2022/12/13 11:17:27;;;;;;;20.43;12.53;;;4.50;90.40;;;;;;5063369;28;20203;-62
2022/12/13 11:19:57;;;;;;;18.60;12.33;;;4.60;90.50;;;;;;5041129;28;20276;-63
2022/12/13 11:22:44;;;;;;;21.47;12.73;;;4.60;90.60;;;;;;5064516;28;20235;-62
2022/12/13 11:25:41;;;;;;;18.87;12.13;;;4.60;90.90;;;;;;5061232;28;20237;-62
2022/12/13 11:28:46;;;;;;;19.70;12.27;;;4.70;91.10;;;;;;5057433;28;20221;-64
2022/12/13 11:31:50;;;;;;;21.43;12.37;;;4.80;91.20;;;;;;5064648;28;20240;-63
2022/12/13 11:34:37;;;;;;;20.10;11.23;;;4.80;91.20;;;;;;5026055;28;20286;-63
2022/12/13 11:37:16;;;;;;;18.20;11.97;;;4.90;91.00;;;;;;5059279;28;20188;-64
2022/12/13 11:39:54;;;;;;;20.60;12.67;;;4.90;91.00;;;;;;5063295;28;20254;-63
2022/12/13 11:42:49;;;;;;;21.53;12.63;;;5.00;91.00;;;;;;5064207;28;20206;-64
2022/12/13 11:45:30;;;;;;;17.80;12.03;;;5.00;91.00;;;;;;5061015;28;20686;-63
2022/12/13 11:48:18;;;;;;;19.80;12.53;;;5.10;90.90;;;;;;5045589;28;20252;-64
2022/12/13 11:50:49;;;;;;;21.00;13.03;;;5.10;90.80;;;;;;5062895;28;20205;-62
2022/12/13 11:53:38;;;;;;;24.23;12.10;;;5.10;90.90;;;;;;5057462;28;20629;-62
2022/12/13 11:56:26;;;;;;;21.87;13.90;;;5.20;91.00;;;;;;5060868;28;20217;-62
2022/12/13 11:58:57;;;;;;;18.80;12.07;;;5.20;90.70;;;;;;5061507;28;20637;-63
2022/12/13 12:01:42;;;;;;;19.20;11.53;;;5.30;90.80;;;;;;5062021;28;20278;-62
2022/12/13 12:04:22;;;;;;;18.87;11.70;;;5.30;90.80;;;;;;5059229;28;20221;-62
2022/12/13 12:06:58;;;;;;;17.03;12.27;;;5.30;90.60;;;;;;5060281;28;20287;-63
2022/12/13 12:09:57;;;;;;;19.73;11.90;;;5.30;90.60;;;;;;5061315;28;20218;-63
2022/12/13 12:12:38;;;;;;;24.40;12.60;;;5.30;90.60;;;;;;5064089;28;20206;-61
2022/12/13 12:15:28;;;;;;;18.43;11.67;;;5.30;90.60;;;;;;5065470;28;20216;-62
2022/12/13 12:17:56;;;;;;;18.87;11.83;;;5.30;90.60;;;;;;5059744;28;20203;-61
2022/12/13 12:20:39;;;;;;;17.73;11.13;;;5.30;90.50;;;;;;5045251;28;20224;-61
2022/12/13 12:23:39;;;;;;;17.30;11.80;;;5.30;90.60;;;;;;5060821;28;20204;-63
2022/12/13 12:26:19;;;;;;;19.50;12.57;;;5.30;90.50;;;;;;5054609;28;20271;-62
2022/12/13 12:28:57;;;;;;;16.57;11.57;;;5.30;90.70;;;;;;5066817;28;20209;-62
2022/12/13 12:31:53;;;;;;;18.07;12.17;;;5.30;90.40;;;;;;5065134;28;20212;-62
2022/12/13 12:34:57;;;;;;;18.83;11.33;;;5.40;90.50;;;;;;5066852;28;20255;-63
2022/12/13 12:37:48;;;;;;;21.73;12.93;;;5.40;90.50;;;;;;5067447;28;20205;-63
2022/12/13 12:40:38;;;;;;;18.13;12.33;;;5.40;90.50;;;;;;5068757;28;20552;-62
2022/12/13 12:43:28;;;;;;;16.77;11.83;;;5.40;90.50;;;;;;5054541;28;20209;-62
2022/12/13 12:45:56;;;;;;;20.87;13.47;;;5.40;90.50;;;;;;5064685;28;20291;-62
2022/12/13 12:49:01;;;;;;;19.13;12.67;;;5.40;90.60;;;;;;5047934;28;20222;-63
2022/12/13 12:51:54;;;;;;;19.57;13.30;;;5.40;90.60;;;;;;5066793;28;20228;-61
2022/12/13 12:54:25;;;;;;;22.37;12.87;;;5.50;90.70;;;;;;5062143;28;20224;-62
2022/12/13 12:57:25;;;;;;;19.13;12.77;;;5.40;90.70;;;;;;5062635;28;20200;-62
2022/12/13 13:00:15;;;;;;;19.37;11.67;;;5.40;90.50;;;;;;5064029;28;20573;-62
2022/12/13 13:02:54;;;;;;;22.00;12.50;;;5.40;90.50;;;;;;5070072;28;20194;-62
2022/12/13 13:05:38;;;;;;;16.27;11.23;;;5.40;90.50;;;;;;5063443;28;20206;-63
2022/12/13 13:08:46;;;;;;;18.77;12.50;;;5.40;90.40;;;;;;5064122;28;20224;-63
2022/12/13 13:11:24;;;;;;;18.70;12.77;;;5.40;90.30;;;;;;5058983;28;20224;-63
2022/12/13 13:13:58;;;;;;;18.27;12.73;;;5.40;90.40;;;;;;5062784;28;20205;-63
2022/12/13 13:16:40;;;;;;;18.83;12.17;;;5.40;90.30;;;;;;5062414;28;20636;-63